sensor_id;sensor_type;location;lat;lon;timestamp;pressure;altitude;pressure_sealevel;temperature;humidity
18795;BME280;29610;49.022;12.114;2023-01-19T00:01:42;96519.34;;;1.93;100.00
18795;BME280;29610;49.022;12.114;2023-01-19T00:04:10;96522.00;;;1.80;100.00
18795;BME280;29610;49.022;12.114;2023-01-19T00:06:39;96528.53;;;1.74;100.00
18795;BME280;29610;49.022;12.114;2023-01-19T00:09:08;96527.59;;;1.65;100.00
18795;BME280;29610;49.022;12.114;2023-01-19T00:11:37;96529.69;;;1.68;100.00
18795;BME280;29610;49.022;12.114;2023-01-19T00:14:05;96531.22;;;1.74;100.00
18795;BME280;29610;49.022;12.114;2023-01-19T00:16:35;96541.50;;;1.67;100.00
18795;BME280;29610;49.022;12.114;2023-01-19T00:19:04;96535.91;;;1.82;100.00
18795;BME280;29610;49.022;12.114;2023-01-19T00:21:32;96536.28;;;1.75;100.00
18795;BME280;29610;49.022;12.114;2023-01-19T00:24:01;96542.97;;;1.91;100.00
18795;BME280;29610;49.022;12.114;2023-01-19T00:26:30;96549.88;;;1.79;100.00
18795;BME280;29610;49.022;12.114;2023-01-19T00:28:58;96548.34;;;1.91;100.00
18795;BME280;29610;49.022;12.114;2023-01-19T00:31:27;96560.38;;;1.75;100.00
18795;BME280;29610;49.022;12.114;2023-01-19T00:34:02;96555.03;;;1.75;100.00
18795;BME280;29610;49.022;12.114;2023-01-19T00:36:32;96562.69;;;1.82;100.00
18795;BME280;29610;49.022;12.114;2023-01-19T00:39:01;96555.09;;;1.70;100.00
18795;BME280;29610;49.022;12.114;2023-01-19T00:41:30;96551.53;;;1.75;100.00
18795;BME280;29610;49.022;12.114;2023-01-19T00:44:15;96562.28;;;1.56;100.00
18795;BME280;29610;49.022;12.114;2023-01-19T00:46:44;96562.25;;;1.75;100.00
18795;BME280;29610;49.022;12.114;2023-01-19T00:49:14;96566.63;;;1.71;100.00
18795;BME280;29610;49.022;12.114;2023-01-19T00:51:42;96571.69;;;1.53;100.00
18795;BME280;29610;49.022;12.114;2023-01-19T00:54:11;96573.84;;;1.70;100.00
18795;BME280;29610;49.022;12.114;2023-01-19T00:56:39;96576.38;;;1.62;100.00
18795;BME280;29610;49.022;12.114;2023-01-19T00:59:09;96577.88;;;1.68;100.00
18795;BME280;29610;49.022;12.114;2023-01-19T01:01:38;96580.78;;;1.71;100.00
18795;BME280;29610;49.022;12.114;2023-01-19T01:04:14;96580.56;;;1.68;100.00
18795;BME280;29610;49.022;12.114;2023-01-19T01:06:43;96585.19;;;1.81;100.00
18795;BME280;29610;49.022;12.114;2023-01-19T01:09:12;96591.13;;;1.78;100.00
18795;BME280;29610;49.022;12.114;2023-01-19T01:11:41;96607.13;;;1.83;100.00
18795;BME280;29610;49.022;12.114;2023-01-19T01:14:11;96607.72;;;2.12;100.00
18795;BME280;29610;49.022;12.114;2023-01-19T01:16:40;96608.81;;;2.11;100.00
18795;BME280;29610;49.022;12.114;2023-01-19T01:19:09;96617.34;;;2.13;100.00
18795;BME280;29610;49.022;12.114;2023-01-19T01:21:40;96614.44;;;2.28;100.00
18795;BME280;29610;49.022;12.114;2023-01-19T01:24:09;96628.66;;;2.42;100.00
18795;BME280;29610;49.022;12.114;2023-01-19T01:26:38;96616.66;;;2.39;100.00
18795;BME280;29610;49.022;12.114;2023-01-19T01:29:06;96617.94;;;2.42;100.00
18795;BME280;29610;49.022;12.114;2023-01-19T01:31:35;96616.34;;;2.41;100.00
18795;BME280;29610;49.022;12.114;2023-01-19T01:34:03;96626.41;;;2.17;100.00
18795;BME280;29610;49.022;12.114;2023-01-19T01:36:32;96632.06;;;2.15;100.00
18795;BME280;29610;49.022;12.114;2023-01-19T01:39:03;96644.59;;;2.20;100.00
18795;BME280;29610;49.022;12.114;2023-01-19T01:41:33;96640.22;;;2.24;100.00
18795;BME280;29610;49.022;12.114;2023-01-19T01:44:01;96641.72;;;2.30;100.00
18795;BME280;29610;49.022;12.114;2023-01-19T01:46:34;96648.84;;;2.21;100.00
18795;BME280;29610;49.022;12.114;2023-01-19T01:49:07;96651.66;;;2.29;100.00
18795;BME280;29610;49.022;12.114;2023-01-19T01:51:45;96651.13;;;2.14;100.00
18795;BME280;29610;49.022;12.114;2023-01-19T01:54:22;96652.94;;;2.32;100.00
18795;BME280;29610;49.022;12.114;2023-01-19T01:56:57;96656.50;;;2.27;100.00
18795;BME280;29610;49.022;12.114;2023-01-19T01:59:32;96657.75;;;2.16;100.00
18795;BME280;29610;49.022;12.114;2023-01-19T02:02:10;96654.34;;;2.11;100.00
18795;BME280;29610;49.022;12.114;2023-01-19T02:05:02;96660.00;;;2.09;100.00
18795;BME280;29610;49.022;12.114;2023-01-19T02:07:40;96659.16;;;1.95;100.00
18795;BME280;29610;49.022;12.114;2023-01-19T02:10:29;96659.38;;;1.99;100.00
18795;BME280;29610;49.022;12.114;2023-01-19T02:13:16;96666.97;;;2.10;100.00
18795;BME280;29610;49.022;12.114;2023-01-19T02:15:49;96668.81;;;1.96;100.00
18795;BME280;29610;49.022;12.114;2023-01-19T02:18:21;96671.50;;;1.96;100.00
18795;BME280;29610;49.022;12.114;2023-01-19T02:21:03;96668.94;;;2.05;100.00
18795;BME280;29610;49.022;12.114;2023-01-19T02:23:42;96667.78;;;1.92;100.00
18795;BME280;29610;49.022;12.114;2023-01-19T02:26:15;96662.69;;;2.09;100.00
18795;BME280;29610;49.022;12.114;2023-01-19T02:28:49;96664.53;;;1.95;100.00
18795;BME280;29610;49.022;12.114;2023-01-19T02:31:19;96668.88;;;1.91;100.00
18795;BME280;29610;49.022;12.114;2023-01-19T02:33:48;96668.72;;;1.83;100.00
18795;BME280;29610;49.022;12.114;2023-01-19T02:36:22;96670.97;;;1.94;100.00
18795;BME280;29610;49.022;12.114;2023-01-19T02:38:55;96665.91;;;1.93;100.00
18795;BME280;29610;49.022;12.114;2023-01-19T02:41:32;96672.56;;;1.95;100.00
18795;BME280;29610;49.022;12.114;2023-01-19T02:44:03;96675.31;;;2.09;100.00
18795;BME280;29610;49.022;12.114;2023-01-19T02:46:32;96680.09;;;2.12;100.00
18795;BME280;29610;49.022;12.114;2023-01-19T02:49:01;96686.09;;;2.04;100.00
18795;BME280;29610;49.022;12.114;2023-01-19T02:51:29;96686.44;;;2.16;100.00
18795;BME280;29610;49.022;12.114;2023-01-19T02:54:21;96686.38;;;2.21;100.00
18795;BME280;29610;49.022;12.114;2023-01-19T02:57:15;96684.88;;;2.15;100.00
18795;BME280;29610;49.022;12.114;2023-01-19T03:00:06;96681.59;;;2.18;100.00
18795;BME280;29610;49.022;12.114;2023-01-19T03:02:57;96680.19;;;2.20;100.00
18795;BME280;29610;49.022;12.114;2023-01-19T03:05:44;96678.91;;;2.18;100.00
18795;BME280;29610;49.022;12.114;2023-01-19T03:08:34;96683.19;;;2.19;100.00
18795;BME280;29610;49.022;12.114;2023-01-19T03:11:12;96686.97;;;2.18;100.00
18795;BME280;29610;49.022;12.114;2023-01-19T03:13:46;96686.50;;;2.11;100.00
18795;BME280;29610;49.022;12.114;2023-01-19T03:16:20;96682.47;;;2.13;100.00
18795;BME280;29610;49.022;12.114;2023-01-19T03:19:02;96682.69;;;1.98;100.00
18795;BME280;29610;49.022;12.114;2023-01-19T03:21:36;96686.59;;;1.87;100.00
18795;BME280;29610;49.022;12.114;2023-01-19T03:24:09;96682.41;;;2.00;100.00
18795;BME280;29610;49.022;12.114;2023-01-19T03:26:44;96685.09;;;2.00;100.00
18795;BME280;29610;49.022;12.114;2023-01-19T03:29:18;96683.47;;;2.17;100.00
18795;BME280;29610;49.022;12.114;2023-01-19T03:31:50;96687.41;;;2.25;100.00
18795;BME280;29610;49.022;12.114;2023-01-19T03:34:20;96686.91;;;2.04;100.00
18795;BME280;29610;49.022;12.114;2023-01-19T03:36:54;96680.53;;;2.00;100.00
18795;BME280;29610;49.022;12.114;2023-01-19T03:39:26;96686.69;;;2.01;100.00
18795;BME280;29610;49.022;12.114;2023-01-19T03:42:02;96690.44;;;2.00;100.00
18795;BME280;29610;49.022;12.114;2023-01-19T03:44:35;96690.66;;;2.03;100.00
18795;BME280;29610;49.022;12.114;2023-01-19T03:47:07;96693.28;;;1.90;100.00
18795;BME280;29610;49.022;12.114;2023-01-19T03:49:40;96688.00;;;1.85;100.00
18795;BME280;29610;49.022;12.114;2023-01-19T03:52:10;96690.38;;;1.86;100.00
18795;BME280;29610;49.022;12.114;2023-01-19T03:54:40;96682.88;;;1.88;100.00
18795;BME280;29610;49.022;12.114;2023-01-19T03:57:11;96685.22;;;1.71;100.00
18795;BME280;29610;49.022;12.114;2023-01-19T03:59:39;96687.50;;;1.64;100.00
18795;BME280;29610;49.022;12.114;2023-01-19T04:02:08;96688.25;;;1.65;100.00
18795;BME280;29610;49.022;12.114;2023-01-19T04:04:37;96681.69;;;1.76;100.00
18795;BME280;29610;49.022;12.114;2023-01-19T04:07:09;96679.28;;;1.74;100.00
18795;BME280;29610;49.022;12.114;2023-01-19T04:09:38;96681.78;;;1.71;100.00
18795;BME280;29610;49.022;12.114;2023-01-19T04:12:07;96679.44;;;1.64;100.00
18795;BME280;29610;49.022;12.114;2023-01-19T04:14:37;96684.34;;;1.57;100.00
18795;BME280;29610;49.022;12.114;2023-01-19T04:17:07;96683.34;;;1.53;100.00
18795;BME280;29610;49.022;12.114;2023-01-19T04:19:36;96691.78;;;1.41;100.00
18795;BME280;29610;49.022;12.114;2023-01-19T04:22:05;96698.31;;;1.35;100.00
18795;BME280;29610;49.022;12.114;2023-01-19T04:24:33;96703.03;;;1.20;100.00
18795;BME280;29610;49.022;12.114;2023-01-19T04:27:02;96699.91;;;1.13;100.00
18795;BME280;29610;49.022;12.114;2023-01-19T04:29:31;96705.75;;;0.91;100.00
18795;BME280;29610;49.022;12.114;2023-01-19T04:32:01;96697.72;;;0.91;100.00
18795;BME280;29610;49.022;12.114;2023-01-19T04:34:29;96703.94;;;0.87;100.00
18795;BME280;29610;49.022;12.114;2023-01-19T04:36:58;96697.63;;;0.78;100.00
18795;BME280;29610;49.022;12.114;2023-01-19T04:39:27;96682.13;;;0.75;100.00
18795;BME280;29610;49.022;12.114;2023-01-19T04:41:55;96682.78;;;0.62;100.00
18795;BME280;29610;49.022;12.114;2023-01-19T04:44:24;96680.56;;;0.69;100.00
18795;BME280;29610;49.022;12.114;2023-01-19T04:46:53;96683.94;;;0.56;100.00
18795;BME280;29610;49.022;12.114;2023-01-19T04:49:23;96683.25;;;0.40;100.00
18795;BME280;29610;49.022;12.114;2023-01-19T04:51:53;96677.69;;;0.37;100.00
18795;BME280;29610;49.022;12.114;2023-01-19T04:54:22;96681.72;;;0.34;100.00
18795;BME280;29610;49.022;12.114;2023-01-19T04:56:50;96682.50;;;0.35;100.00
18795;BME280;29610;49.022;12.114;2023-01-19T04:59:19;96680.56;;;0.40;100.00
18795;BME280;29610;49.022;12.114;2023-01-19T05:01:48;96683.94;;;0.27;100.00
18795;BME280;29610;49.022;12.114;2023-01-19T05:04:16;96681.75;;;0.29;100.00
18795;BME280;29610;49.022;12.114;2023-01-19T05:06:46;96685.78;;;0.27;100.00
18795;BME280;29610;49.022;12.114;2023-01-19T05:09:16;96689.94;;;0.09;100.00
18795;BME280;29610;49.022;12.114;2023-01-19T05:11:44;96695.31;;;0.04;100.00
18795;BME280;29610;49.022;12.114;2023-01-19T05:14:13;96698.31;;;-0.08;100.00
18795;BME280;29610;49.022;12.114;2023-01-19T05:16:42;96705.63;;;-0.18;100.00
18795;BME280;29610;49.022;12.114;2023-01-19T05:19:11;96706.63;;;-0.58;100.00
18795;BME280;29610;49.022;12.114;2023-01-19T05:21:39;96704.00;;;-0.63;100.00
18795;BME280;29610;49.022;12.114;2023-01-19T05:24:09;96706.91;;;-0.59;100.00
18795;BME280;29610;49.022;12.114;2023-01-19T05:26:38;96704.00;;;-0.68;100.00
18795;BME280;29610;49.022;12.114;2023-01-19T05:29:07;96705.63;;;-0.72;100.00
18795;BME280;29610;49.022;12.114;2023-01-19T05:31:36;96709.34;;;-0.68;100.00
18795;BME280;29610;49.022;12.114;2023-01-19T05:34:05;96715.22;;;-0.71;100.00
18795;BME280;29610;49.022;12.114;2023-01-19T05:36:36;96711.16;;;-0.58;100.00
18795;BME280;29610;49.022;12.114;2023-01-19T05:39:05;96717.31;;;-0.58;100.00
18795;BME280;29610;49.022;12.114;2023-01-19T05:41:36;96712.28;;;-0.69;100.00
18795;BME280;29610;49.022;12.114;2023-01-19T05:44:05;96718.66;;;-0.65;100.00
18795;BME280;29610;49.022;12.114;2023-01-19T05:46:34;96724.28;;;-0.72;100.00
18795;BME280;29610;49.022;12.114;2023-01-19T05:49:07;96726.00;;;-0.96;100.00
18795;BME280;29610;49.022;12.114;2023-01-19T05:51:36;96729.78;;;-1.12;100.00
18795;BME280;29610;49.022;12.114;2023-01-19T05:54:06;96737.25;;;-1.34;100.00
18795;BME280;29610;49.022;12.114;2023-01-19T05:56:37;96731.69;;;-1.42;100.00
18795;BME280;29610;49.022;12.114;2023-01-19T05:59:06;96737.03;;;-1.53;100.00
18795;BME280;29610;49.022;12.114;2023-01-19T06:01:36;96748.47;;;-1.57;100.00
18795;BME280;29610;49.022;12.114;2023-01-19T06:04:06;96748.22;;;-1.40;100.00
18795;BME280;29610;49.022;12.114;2023-01-19T06:06:35;96745.00;;;-1.42;100.00
18795;BME280;29610;49.022;12.114;2023-01-19T06:09:03;96746.09;;;-1.54;100.00
18795;BME280;29610;49.022;12.114;2023-01-19T06:11:34;96753.28;;;-1.54;100.00
18795;BME280;29610;49.022;12.114;2023-01-19T06:14:04;96754.34;;;-1.55;100.00
18795;BME280;29610;49.022;12.114;2023-01-19T06:16:32;96765.50;;;-1.53;100.00
18795;BME280;29610;49.022;12.114;2023-01-19T06:19:01;96762.59;;;-1.62;100.00
18795;BME280;29610;49.022;12.114;2023-01-19T06:21:30;96768.19;;;-1.68;100.00
18795;BME280;29610;49.022;12.114;2023-01-19T06:23:59;96772.16;;;-1.71;100.00
18795;BME280;29610;49.022;12.114;2023-01-19T06:26:27;96770.84;;;-1.68;100.00
18795;BME280;29610;49.022;12.114;2023-01-19T06:28:56;96776.72;;;-1.66;100.00
18795;BME280;29610;49.022;12.114;2023-01-19T06:31:26;96785.50;;;-1.66;100.00
18795;BME280;29610;49.022;12.114;2023-01-19T06:34:01;96782.31;;;-1.53;100.00
18795;BME280;29610;49.022;12.114;2023-01-19T06:36:39;96788.97;;;-1.60;100.00
18795;BME280;29610;49.022;12.114;2023-01-19T06:39:09;96800.44;;;-1.65;100.00
18795;BME280;29610;49.022;12.114;2023-01-19T06:41:38;96798.31;;;-1.68;100.00
18795;BME280;29610;49.022;12.114;2023-01-19T06:44:06;96805.22;;;-1.67;100.00
18795;BME280;29610;49.022;12.114;2023-01-19T06:46:37;96806.84;;;-1.51;100.00
18795;BME280;29610;49.022;12.114;2023-01-19T06:49:06;96815.63;;;-1.55;100.00
18795;BME280;29610;49.022;12.114;2023-01-19T06:51:35;96817.50;;;-1.40;100.00
18795;BME280;29610;49.022;12.114;2023-01-19T06:54:04;96818.53;;;-1.52;100.00
18795;BME280;29610;49.022;12.114;2023-01-19T06:56:32;96821.22;;;-1.41;100.00
18795;BME280;29610;49.022;12.114;2023-01-19T06:59:01;96825.22;;;-1.49;100.00
18795;BME280;29610;49.022;12.114;2023-01-19T07:01:30;96824.97;;;-1.37;100.00
18795;BME280;29610;49.022;12.114;2023-01-19T07:04:00;96831.88;;;-1.47;100.00
18795;BME280;29610;49.022;12.114;2023-01-19T07:06:29;96834.28;;;-1.50;100.00
18795;BME280;29610;49.022;12.114;2023-01-19T07:08:57;96844.38;;;-1.67;100.00
18795;BME280;29610;49.022;12.114;2023-01-19T07:11:26;96842.25;;;-1.65;100.00
18795;BME280;29610;49.022;12.114;2023-01-19T07:13:59;96853.47;;;-1.58;100.00
18795;BME280;29610;49.022;12.114;2023-01-19T07:16:27;96856.66;;;-1.36;100.00
18795;BME280;29610;49.022;12.114;2023-01-19T07:18:56;96864.94;;;-1.17;100.00
18795;BME280;29610;49.022;12.114;2023-01-19T07:21:26;96865.19;;;-0.94;100.00
18795;BME280;29610;49.022;12.114;2023-01-19T07:23:55;96862.78;;;-0.70;100.00
18795;BME280;29610;49.022;12.114;2023-01-19T07:26:24;96855.75;;;-0.46;100.00
18795;BME280;29610;49.022;12.114;2023-01-19T07:28:54;96862.09;;;-0.27;100.00
18795;BME280;29610;49.022;12.114;2023-01-19T07:31:22;96866.31;;;-0.11;100.00
18795;BME280;29610;49.022;12.114;2023-01-19T07:33:52;96859.28;;;0.08;100.00
18795;BME280;29610;49.022;12.114;2023-01-19T07:36:21;96867.84;;;0.05;100.00
18795;BME280;29610;49.022;12.114;2023-01-19T07:38:51;96867.53;;;0.12;100.00
18795;BME280;29610;49.022;12.114;2023-01-19T07:41:20;96874.66;;;0.31;100.00
18795;BME280;29610;49.022;12.114;2023-01-19T07:43:49;96869.78;;;0.43;100.00
18795;BME280;29610;49.022;12.114;2023-01-19T07:46:19;96876.19;;;0.47;100.00
18795;BME280;29610;49.022;12.114;2023-01-19T07:48:47;96876.09;;;0.62;100.00
18795;BME280;29610;49.022;12.114;2023-01-19T07:51:17;96876.31;;;0.66;100.00
18795;BME280;29610;49.022;12.114;2023-01-19T07:53:53;96880.38;;;0.58;100.00
18795;BME280;29610;49.022;12.114;2023-01-19T07:56:24;96884.56;;;0.74;100.00
18795;BME280;29610;49.022;12.114;2023-01-19T07:58:54;96880.72;;;0.85;100.00
18795;BME280;29610;49.022;12.114;2023-01-19T08:01:23;96879.78;;;0.71;100.00
18795;BME280;29610;49.022;12.114;2023-01-19T08:03:52;96876.69;;;0.88;100.00
18795;BME280;29610;49.022;12.114;2023-01-19T08:06:22;96883.06;;;0.97;100.00
18795;BME280;29610;49.022;12.114;2023-01-19T08:08:53;96884.59;;;1.03;100.00
18795;BME280;29610;49.022;12.114;2023-01-19T08:11:22;96885.38;;;1.08;100.00
18795;BME280;29610;49.022;12.114;2023-01-19T08:13:51;96880.50;;;0.77;100.00
18795;BME280;29610;49.022;12.114;2023-01-19T08:16:21;96881.69;;;0.99;100.00
18795;BME280;29610;49.022;12.114;2023-01-19T08:18:51;96889.47;;;0.96;100.00
18795;BME280;29610;49.022;12.114;2023-01-19T08:21:20;96887.53;;;1.06;100.00
18795;BME280;29610;49.022;12.114;2023-01-19T08:23:55;96890.03;;;1.26;100.00
18795;BME280;29610;49.022;12.114;2023-01-19T08:26:27;96897.56;;;1.24;100.00
18795;BME280;29610;49.022;12.114;2023-01-19T08:29:01;96903.69;;;1.25;100.00
18795;BME280;29610;49.022;12.114;2023-01-19T08:31:30;96904.00;;;1.47;100.00
18795;BME280;29610;49.022;12.114;2023-01-19T08:34:00;96895.66;;;1.53;100.00
18795;BME280;29610;49.022;12.114;2023-01-19T08:36:31;96895.03;;;1.62;100.00
18795;BME280;29610;49.022;12.114;2023-01-19T08:39:02;96899.53;;;1.66;100.00
18795;BME280;29610;49.022;12.114;2023-01-19T08:41:32;96895.56;;;1.64;100.00
18795;BME280;29610;49.022;12.114;2023-01-19T08:44:01;96898.13;;;1.74;100.00
18795;BME280;29610;49.022;12.114;2023-01-19T08:46:29;96897.09;;;1.93;100.00
18795;BME280;29610;49.022;12.114;2023-01-19T08:48:58;96897.63;;;1.95;100.00
18795;BME280;29610;49.022;12.114;2023-01-19T08:51:27;96892.69;;;2.07;100.00
18795;BME280;29610;49.022;12.114;2023-01-19T08:53:58;96886.81;;;2.24;100.00
18795;BME280;29610;49.022;12.114;2023-01-19T08:56:28;96894.22;;;2.32;100.00
18795;BME280;29610;49.022;12.114;2023-01-19T08:58:59;96891.53;;;2.32;100.00
18795;BME280;29610;49.022;12.114;2023-01-19T09:01:36;96887.53;;;1.87;100.00
18795;BME280;29610;49.022;12.114;2023-01-19T09:04:05;96900.78;;;2.02;100.00
18795;BME280;29610;49.022;12.114;2023-01-19T09:06:34;96901.91;;;1.96;100.00
18795;BME280;29610;49.022;12.114;2023-01-19T09:09:03;96909.19;;;1.91;100.00
18795;BME280;29610;49.022;12.114;2023-01-19T09:11:33;96902.25;;;1.90;100.00
18795;BME280;29610;49.022;12.114;2023-01-19T09:14:03;96913.06;;;1.80;100.00
18795;BME280;29610;49.022;12.114;2023-01-19T09:16:32;96908.28;;;2.00;100.00
18795;BME280;29610;49.022;12.114;2023-01-19T09:19:00;96911.28;;;2.41;100.00
18795;BME280;29610;49.022;12.114;2023-01-19T09:21:29;96909.94;;;2.80;100.00
18795;BME280;29610;49.022;12.114;2023-01-19T09:23:58;96903.91;;;2.70;100.00
18795;BME280;29610;49.022;12.114;2023-01-19T09:26:27;96912.38;;;2.77;100.00
18795;BME280;29610;49.022;12.114;2023-01-19T09:29:00;96905.63;;;2.79;100.00
18795;BME280;29610;49.022;12.114;2023-01-19T09:31:29;96904.03;;;3.16;100.00
18795;BME280;29610;49.022;12.114;2023-01-19T09:33:58;96912.38;;;3.14;100.00
18795;BME280;29610;49.022;12.114;2023-01-19T09:36:27;96910.59;;;3.23;100.00
18795;BME280;29610;49.022;12.114;2023-01-19T09:38:56;96912.78;;;3.21;100.00
18795;BME280;29610;49.022;12.114;2023-01-19T09:41:25;96910.16;;;3.16;100.00
18795;BME280;29610;49.022;12.114;2023-01-19T09:43:58;96906.56;;;3.07;100.00
18795;BME280;29610;49.022;12.114;2023-01-19T09:46:36;96912.63;;;3.31;100.00
18795;BME280;29610;49.022;12.114;2023-01-19T09:49:13;96917.47;;;3.48;100.00
18795;BME280;29610;49.022;12.114;2023-01-19T09:51:46;96914.75;;;3.16;100.00
18795;BME280;29610;49.022;12.114;2023-01-19T09:54:18;96913.63;;;2.84;100.00
18795;BME280;29610;49.022;12.114;2023-01-19T09:56:49;96912.47;;;3.23;100.00
18795;BME280;29610;49.022;12.114;2023-01-19T09:59:22;96911.28;;;3.15;100.00
18795;BME280;29610;49.022;12.114;2023-01-19T10:02:17;96917.38;;;3.02;100.00
18795;BME280;29610;49.022;12.114;2023-01-19T10:04:58;96918.41;;;2.87;100.00
18795;BME280;29610;49.022;12.114;2023-01-19T10:07:44;96915.13;;;3.09;100.00
18795;BME280;29610;49.022;12.114;2023-01-19T10:10:22;96914.81;;;3.29;100.00
18795;BME280;29610;49.022;12.114;2023-01-19T10:13:02;96915.84;;;3.47;100.00
18795;BME280;29610;49.022;12.114;2023-01-19T10:15:48;96906.19;;;3.78;100.00
18795;BME280;29610;49.022;12.114;2023-01-19T10:18:23;96911.97;;;3.53;100.00
18795;BME280;29610;49.022;12.114;2023-01-19T10:21:03;96901.56;;;3.65;100.00
18795;BME280;29610;49.022;12.114;2023-01-19T10:23:42;96902.81;;;3.86;100.00
18795;BME280;29610;49.022;12.114;2023-01-19T10:26:22;96906.31;;;3.54;100.00
18795;BME280;29610;49.022;12.114;2023-01-19T10:28:56;96899.34;;;3.40;100.00
18795;BME280;29610;49.022;12.114;2023-01-19T10:31:28;96911.13;;;3.57;100.00
18795;BME280;29610;49.022;12.114;2023-01-19T10:34:01;96898.22;;;3.86;100.00
18795;BME280;29610;49.022;12.114;2023-01-19T10:36:36;96900.59;;;4.15;100.00
18795;BME280;29610;49.022;12.114;2023-01-19T10:39:15;96892.94;;;4.22;100.00
18795;BME280;29610;49.022;12.114;2023-01-19T10:41:51;96897.13;;;4.14;100.00
18795;BME280;29610;49.022;12.114;2023-01-19T10:44:27;96889.47;;;4.08;100.00
18795;BME280;29610;49.022;12.114;2023-01-19T10:46:59;96893.16;;;3.98;100.00
18795;BME280;29610;49.022;12.114;2023-01-19T10:49:39;96886.28;;;4.19;100.00
18795;BME280;29610;49.022;12.114;2023-01-19T10:52:24;96887.00;;;4.11;100.00
18795;BME280;29610;49.022;12.114;2023-01-19T10:54:56;96889.38;;;4.13;100.00
18795;BME280;29610;49.022;12.114;2023-01-19T10:57:30;96885.75;;;4.44;100.00
18795;BME280;29610;49.022;12.114;2023-01-19T10:59:59;96881.66;;;4.47;100.00
18795;BME280;29610;49.022;12.114;2023-01-19T11:02:30;96876.38;;;4.56;100.00
18795;BME280;29610;49.022;12.114;2023-01-19T11:05:22;96879.66;;;4.53;100.00
18795;BME280;29610;49.022;12.114;2023-01-19T11:07:51;96884.03;;;4.48;100.00
18795;BME280;29610;49.022;12.114;2023-01-19T11:10:23;96876.25;;;4.61;100.00
18795;BME280;29610;49.022;12.114;2023-01-19T11:12:59;96871.97;;;4.60;100.00
18795;BME280;29610;49.022;12.114;2023-01-19T11:15:33;96878.19;;;4.82;100.00
18795;BME280;29610;49.022;12.114;2023-01-19T11:18:04;96867.06;;;4.97;100.00
18795;BME280;29610;49.022;12.114;2023-01-19T11:20:47;96867.94;;;5.28;100.00
18795;BME280;29610;49.022;12.114;2023-01-19T11:23:26;96874.06;;;5.42;100.00
18795;BME280;29610;49.022;12.114;2023-01-19T11:25:58;96866.69;;;5.56;100.00
18795;BME280;29610;49.022;12.114;2023-01-19T11:28:33;96860.25;;;6.05;100.00
18795;BME280;29610;49.022;12.114;2023-01-19T11:31:18;96855.00;;;6.48;100.00
18795;BME280;29610;49.022;12.114;2023-01-19T11:33:51;96861.78;;;5.89;100.00
18795;BME280;29610;49.022;12.114;2023-01-19T11:36:24;96858.25;;;6.11;100.00
18795;BME280;29610;49.022;12.114;2023-01-19T11:38:55;96851.00;;;6.28;100.00
18795;BME280;29610;49.022;12.114;2023-01-19T11:41:28;96853.91;;;6.01;100.00
18795;BME280;29610;49.022;12.114;2023-01-19T11:44:07;96851.13;;;6.23;100.00
18795;BME280;29610;49.022;12.114;2023-01-19T11:46:43;96850.91;;;6.59;100.00
18795;BME280;29610;49.022;12.114;2023-01-19T11:49:22;96837.06;;;6.94;100.00
18795;BME280;29610;49.022;12.114;2023-01-19T11:52:03;96845.00;;;6.48;100.00
18795;BME280;29610;49.022;12.114;2023-01-19T11:54:40;96848.00;;;6.47;100.00
18795;BME280;29610;49.022;12.114;2023-01-19T11:57:15;96847.88;;;6.69;100.00
18795;BME280;29610;49.022;12.114;2023-01-19T11:59:44;96839.44;;;5.97;100.00
18795;BME280;29610;49.022;12.114;2023-01-19T12:02:23;96841.25;;;6.10;100.00
18795;BME280;29610;49.022;12.114;2023-01-19T12:04:59;96834.50;;;6.38;100.00
18795;BME280;29610;49.022;12.114;2023-01-19T12:07:35;96828.94;;;6.43;100.00
18795;BME280;29610;49.022;12.114;2023-01-19T12:10:22;96833.25;;;6.53;100.00
18795;BME280;29610;49.022;12.114;2023-01-19T12:12:53;96835.31;;;6.64;100.00
18795;BME280;29610;49.022;12.114;2023-01-19T12:15:31;96830.88;;;6.77;100.00
18795;BME280;29610;49.022;12.114;2023-01-19T12:18:05;96831.50;;;7.25;100.00
18795;BME280;29610;49.022;12.114;2023-01-19T12:20:42;96836.41;;;7.31;100.00
18795;BME280;29610;49.022;12.114;2023-01-19T12:23:28;96832.75;;;7.36;100.00
18795;BME280;29610;49.022;12.114;2023-01-19T12:29:04;96834.53;;;7.06;100.00
18795;BME280;29610;49.022;12.114;2023-01-19T12:31:33;96824.84;;;7.14;100.00
18795;BME280;29610;49.022;12.114;2023-01-19T12:34:35;96815.75;;;7.27;100.00
18795;BME280;29610;49.022;12.114;2023-01-19T12:37:32;96813.38;;;7.08;100.00
18795;BME280;29610;49.022;12.114;2023-01-19T12:40:18;96815.00;;;7.01;100.00
18795;BME280;29610;49.022;12.114;2023-01-19T12:42:57;96809.91;;;6.99;100.00
18795;BME280;29610;49.022;12.114;2023-01-19T12:45:31;96806.69;;;7.31;100.00
18795;BME280;29610;49.022;12.114;2023-01-19T12:48:03;96814.84;;;7.14;100.00
18795;BME280;29610;49.022;12.114;2023-01-19T12:50:36;96809.28;;;7.11;100.00
18795;BME280;29610;49.022;12.114;2023-01-19T12:53:18;96812.28;;;7.18;100.00
18795;BME280;29610;49.022;12.114;2023-01-19T12:55:58;96810.88;;;7.03;100.00
18795;BME280;29610;49.022;12.114;2023-01-19T12:58:27;96811.03;;;6.81;100.00
18795;BME280;29610;49.022;12.114;2023-01-19T13:01:14;96816.16;;;6.10;100.00
18795;BME280;29610;49.022;12.114;2023-01-19T13:03:59;96808.22;;;5.96;100.00
18795;BME280;29610;49.022;12.114;2023-01-19T13:07:07;96815.38;;;5.09;100.00
18795;BME280;29610;49.022;12.114;2023-01-19T13:09:41;96818.19;;;5.04;100.00
18795;BME280;29610;49.022;12.114;2023-01-19T13:12:25;96821.66;;;4.82;100.00
18795;BME280;29610;49.022;12.114;2023-01-19T13:15:32;96811.59;;;4.52;100.00
18795;BME280;29610;49.022;12.114;2023-01-19T13:18:02;96813.34;;;4.70;100.00
18795;BME280;29610;49.022;12.114;2023-01-19T13:20:43;96811.06;;;4.28;100.00